Time;durP1;ratioP1;P1;durP2;ratioP2;P2;SDS_P1;SDS_P2;PMS_P1;PMS_P2;Temp;Humidity;BMP_temperature;BMP_pressure;BME280_temperature;BME280_humidity;BME280_pressure;Samples;Min_cycle;Max_cycle;Signal;HPM_P1;HPM_P2
2022/03/30 00:01:27;;;;;;;11.38;4.60;;;1.20;99.90;;;;;;5029540;28;20413;-83
2022/03/30 00:03:52;;;;;;;8.47;4.10;;;1.20;99.90;;;;;;5031829;28;20381;-82
2022/03/30 00:06:18;;;;;;;9.90;4.67;;;1.10;99.90;;;;;;5031608;28;20735;-82
2022/03/30 00:08:44;;;;;;;8.20;4.30;;;1.20;99.90;;;;;;5030690;28;20464;-82
2022/03/30 00:11:11;;;;;;;10.73;4.22;;;1.10;99.90;;;;;;5031584;28;20453;-83
2022/03/30 00:13:37;;;;;;;9.38;4.05;;;1.10;99.90;;;;;;5031573;28;20389;-82
2022/03/30 00:16:04;;;;;;;8.13;4.45;;;1.10;99.90;;;;;;5031526;28;20464;-83
2022/03/30 00:18:30;;;;;;;10.60;4.88;;;1.10;99.90;;;;;;5031314;28;20809;-82
2022/03/30 00:20:56;;;;;;;10.95;4.30;;;1.00;99.90;;;;;;5029861;28;20377;-82
2022/03/30 00:23:21;;;;;;;10.13;4.63;;;1.10;99.90;;;;;;5029778;28;20386;-82
2022/03/30 00:25:47;;;;;;;8.30;4.27;;;1.00;99.90;;;;;;5031065;28;20373;-83
2022/03/30 00:28:13;;;;;;;7.97;4.17;;;1.00;99.90;;;;;;5031515;28;20388;-82
2022/03/30 00:30:39;;;;;;;9.63;4.50;;;1.00;99.90;;;;;;5032061;28;20473;-83
2022/03/30 00:33:04;;;;;;;10.57;4.97;;;0.90;99.90;;;;;;5029867;28;20397;-82
2022/03/30 00:35:30;;;;;;;10.13;5.00;;;0.90;99.90;;;;;;5031085;28;20562;-82
2022/03/30 00:37:56;;;;;;;7.68;4.18;;;0.90;99.90;;;;;;5030998;28;20405;-83
2022/03/30 00:40:22;;;;;;;7.95;4.15;;;0.80;99.90;;;;;;5029492;28;20488;-83
2022/03/30 00:42:47;;;;;;;12.45;4.72;;;0.80;99.90;;;;;;5028986;28;20713;-82
2022/03/30 00:45:16;;;;;;;9.80;4.50;;;0.90;99.90;;;;;;5028680;28;20385;-82
2022/03/30 00:47:42;;;;;;;10.73;5.20;;;0.80;99.90;;;;;;5028296;28;20408;-82
2022/03/30 00:50:10;;;;;;;9.27;4.72;;;0.90;99.90;;;;;;5031918;28;20405;-82
2022/03/30 00:52:37;;;;;;;11.50;5.27;;;0.90;99.90;;;;;;5029699;28;20470;-82
2022/03/30 00:55:04;;;;;;;10.85;5.05;;;0.80;99.90;;;;;;5030998;28;20380;-83
2022/03/30 00:57:32;;;;;;;10.10;4.90;;;0.80;99.90;;;;;;5030026;28;20401;-82
2022/03/30 00:59:58;;;;;;;8.55;5.18;;;0.80;99.90;;;;;;5029831;28;20430;-82
2022/03/30 01:02:24;;;;;;;9.73;4.25;;;0.80;99.90;;;;;;5029734;28;20467;-82
2022/03/30 01:04:51;;;;;;;11.80;4.82;;;0.70;99.90;;;;;;5030936;28;20806;-82
2022/03/30 01:07:16;;;;;;;8.07;4.60;;;0.70;99.90;;;;;;5031912;28;20373;-82
2022/03/30 01:09:42;;;;;;;9.77;4.43;;;0.70;99.90;;;;;;5030862;28;20756;-83
2022/03/30 01:12:10;;;;;;;11.60;4.80;;;0.70;99.90;;;;;;5031323;28;20377;-83
2022/03/30 01:14:36;;;;;;;9.57;4.72;;;0.70;99.90;;;;;;5031808;28;20738;-83
2022/03/30 01:17:03;;;;;;;9.30;4.60;;;0.70;99.90;;;;;;5030929;28;20401;-83
2022/03/30 01:19:30;;;;;;;8.73;4.20;;;0.80;99.90;;;;;;5032969;28;20380;-83
2022/03/30 01:21:55;;;;;;;7.20;4.05;;;0.70;99.90;;;;;;5035559;28;20732;-82
2022/03/30 01:24:21;;;;;;;6.63;4.22;;;0.60;99.90;;;;;;5035138;28;20918;-83
2022/03/30 01:26:47;;;;;;;7.63;4.50;;;0.60;99.90;;;;;;5035983;28;20393;-83
2022/03/30 01:34:42;;;;;;;7.90;4.75;;;0.70;99.90;;;;;;5036550;28;20389;-82
2022/03/30 01:37:10;;;;;;;9.75;4.63;;;0.70;99.90;;;;;;5036099;28;20386;-82
2022/03/30 01:39:36;;;;;;;9.30;4.70;;;0.80;99.90;;;;;;5035247;28;20392;-82
2022/03/30 01:42:03;;;;;;;8.38;4.75;;;0.90;99.90;;;;;;5033806;28;20381;-83
2022/03/30 01:44:28;;;;;;;8.82;4.75;;;0.90;99.90;;;;;;5034460;28;20376;-83
2022/03/30 01:46:54;;;;;;;8.18;4.15;;;1.00;99.90;;;;;;5034447;28;20473;-83
2022/03/30 01:49:21;;;;;;;11.40;4.68;;;1.00;99.90;;;;;;5034373;28;20397;-82
2022/03/30 01:51:53;;;;;;;8.98;4.47;;;1.10;99.90;;;;;;5033846;28;20882;-82
2022/03/30 01:54:22;;;;;;;7.95;4.43;;;1.10;99.90;;;;;;5034065;28;20390;-82
2022/03/30 01:56:48;;;;;;;7.28;4.53;;;1.10;99.90;;;;;;5033921;28;20431;-83
2022/03/30 01:59:14;;;;;;;9.48;4.57;;;1.10;99.90;;;;;;5032420;28;20381;-82
2022/03/30 02:01:41;;;;;;;9.38;4.55;;;1.10;99.90;;;;;;5033703;28;20526;-83
2022/03/30 02:04:07;;;;;;;10.02;5.15;;;1.10;99.90;;;;;;5032103;28;20489;-82
2022/03/30 02:06:37;;;;;;;10.05;5.05;;;1.10;99.90;;;;;;5031550;28;20446;-82
2022/03/30 02:09:04;;;;;;;10.82;4.82;;;1.00;99.90;;;;;;5032287;28;20473;-83
2022/03/30 02:11:30;;;;;;;13.25;5.10;;;1.00;99.90;;;;;;5031544;28;20822;-83
2022/03/30 02:13:56;;;;;;;10.77;5.50;;;1.00;99.90;;;;;;5032669;28;20385;-82
2022/03/30 02:16:23;;;;;;;7.90;4.77;;;1.10;99.90;;;;;;5032665;28;20890;-83
2022/03/30 02:18:48;;;;;;;11.13;5.38;;;1.10;99.90;;;;;;5032128;28;20412;-82
2022/03/30 02:21:17;;;;;;;8.23;4.27;;;1.10;99.90;;;;;;5032544;28;20432;-82
2022/03/30 02:23:47;;;;;;;10.07;5.20;;;1.00;99.90;;;;;;5031067;28;20401;-83
2022/03/30 02:26:15;;;;;;;9.98;4.95;;;0.90;99.90;;;;;;5031215;28;20481;-82
2022/03/30 02:28:51;;;;;;;9.68;4.90;;;0.90;99.90;;;;;;5032205;28;20374;-83
2022/03/30 02:31:24;;;;;;;12.80;5.18;;;0.80;99.90;;;;;;5030453;28;20945;-83
2022/03/30 02:33:50;;;;;;;9.57;5.28;;;0.70;99.90;;;;;;5032214;28;20397;-83
2022/03/30 02:36:16;;;;;;;9.77;4.85;;;0.70;99.90;;;;;;5032308;28;20382;-83
2022/03/30 02:38:43;;;;;;;8.88;5.20;;;0.70;99.90;;;;;;5032108;28;20405;-83
2022/03/30 02:41:09;;;;;;;9.90;5.67;;;0.70;99.90;;;;;;5030843;28;20401;-82
2022/03/30 02:43:36;;;;;;;11.82;5.78;;;0.70;99.90;;;;;;5030847;28;20396;-83
2022/03/30 02:46:01;;;;;;;11.15;5.78;;;0.70;99.90;;;;;;5032029;28;20480;-83
2022/03/30 02:48:32;;;;;;;9.90;5.75;;;0.90;99.90;;;;;;5030482;28;20485;-83
2022/03/30 02:51:02;;;;;;;11.63;5.78;;;0.80;99.90;;;;;;5030690;28;20390;-83
2022/03/30 02:53:28;;;;;;;10.75;5.63;;;0.60;99.90;;;;;;5030594;28;20783;-82
2022/03/30 02:55:55;;;;;;;10.88;5.70;;;0.50;99.90;;;;;;5031793;28;20386;-82
2022/03/30 02:58:21;;;;;;;8.88;5.72;;;0.50;99.90;;;;;;5031547;28;20572;-83
2022/03/30 03:00:46;;;;;;;12.95;5.40;;;0.50;99.90;;;;;;5030338;28;20389;-83
2022/03/30 03:03:12;;;;;;;11.07;5.53;;;0.40;99.90;;;;;;5031450;28;20435;-83
2022/03/30 03:05:41;;;;;;;11.95;5.70;;;0.40;99.90;;;;;;5031683;28;20411;-82
2022/03/30 03:08:08;;;;;;;8.50;5.10;;;0.30;99.90;;;;;;5031482;28;20381;-82
2022/03/30 03:10:39;;;;;;;10.35;5.13;;;0.30;99.90;;;;;;5029739;28;20409;-83
2022/03/30 03:13:05;;;;;;;8.27;5.30;;;0.20;99.90;;;;;;5031367;28;20404;-83
2022/03/30 03:15:32;;;;;;;12.75;5.18;;;0.20;99.90;;;;;;5031383;28;20875;-83
2022/03/30 03:17:58;;;;;;;10.77;5.57;;;0.20;99.90;;;;;;5031286;28;20408;-83
2022/03/30 03:20:25;;;;;;;9.98;4.80;;;0.20;99.90;;;;;;5030844;28;20393;-83
2022/03/30 03:22:50;;;;;;;24.65;6.90;;;0.10;99.90;;;;;;5030210;28;20385;-83
2022/03/30 03:25:16;;;;;;;21.60;6.13;;;0.10;99.90;;;;;;5031249;28;20444;-82
2022/03/30 03:27:42;;;;;;;18.00;6.05;;;0.10;99.90;;;;;;5029751;28;20863;-83
2022/03/30 03:30:09;;;;;;;53.05;10.07;;;0.20;99.90;;;;;;5031287;28;20476;-83
2022/03/30 03:32:35;;;;;;;89.47;13.90;;;0.20;99.90;;;;;;5031042;28;20743;-83
2022/03/30 03:35:01;;;;;;;68.90;12.20;;;0.20;99.90;;;;;;5031408;28;20400;-82
2022/03/30 03:37:26;;;;;;;41.03;8.43;;;0.20;99.90;;;;;;5030322;28;20394;-84
2022/03/30 03:39:52;;;;;;;34.07;7.30;;;0.20;99.90;;;;;;5030166;28;20419;-83
2022/03/30 03:42:18;;;;;;;29.47;7.30;;;0.30;99.90;;;;;;5030319;28;20378;-84
2022/03/30 03:44:43;;;;;;;22.45;6.82;;;0.20;99.90;;;;;;5029807;28;20406;-83
2022/03/30 03:47:09;;;;;;;23.88;7.13;;;0.20;99.90;;;;;;5029772;28;20386;-83
2022/03/30 03:49:36;;;;;;;16.92;5.95;;;0.30;99.90;;;;;;5029320;28;20389;-83
2022/03/30 03:52:03;;;;;;;17.27;6.00;;;0.30;99.90;;;;;;5030987;28;20477;-83
2022/03/30 03:54:28;;;;;;;18.50;6.28;;;0.30;99.90;;;;;;5029537;28;20377;-83
2022/03/30 03:56:54;;;;;;;20.37;6.37;;;0.40;99.90;;;;;;5029353;28;20732;-83
2022/03/30 03:59:20;;;;;;;20.53;6.43;;;0.40;99.90;;;;;;5030089;28;20903;-84
2022/03/30 04:01:45;;;;;;;33.15;7.88;;;0.40;99.90;;;;;;5030104;28;20389;-83
2022/03/30 04:04:11;;;;;;;34.85;8.30;;;0.50;99.90;;;;;;5030952;28;20394;-83
2022/03/30 04:06:36;;;;;;;34.57;7.87;;;0.60;99.90;;;;;;5030001;28;20883;-83
2022/03/30 04:09:03;;;;;;;28.57;7.73;;;0.70;99.90;;;;;;5029497;28;20392;-84
2022/03/30 04:11:28;;;;;;;30.55;8.05;;;0.70;99.90;;;;;;5030643;28;20420;-83
2022/03/30 04:13:54;;;;;;;60.05;9.48;;;0.70;99.90;;;;;;5029672;28;20385;-84
2022/03/30 04:16:21;;;;;;;44.53;8.48;;;0.90;99.90;;;;;;5030931;28;20373;-83
2022/03/30 04:18:47;;;;;;;30.50;8.23;;;1.00;99.90;;;;;;5031473;28;20406;-82
2022/03/30 04:21:13;;;;;;;20.10;7.55;;;1.00;99.90;;;;;;5034424;28;20389;-83
2022/03/30 04:23:38;;;;;;;34.58;8.85;;;1.00;99.90;;;;;;5032335;28;20394;-83
2022/03/30 04:26:04;;;;;;;40.63;10.35;;;1.10;99.90;;;;;;5033844;28;20395;-83
2022/03/30 04:28:30;;;;;;;22.63;7.65;;;1.20;99.90;;;;;;5033084;28;20378;-83
2022/03/30 04:30:56;;;;;;;16.48;6.88;;;1.20;99.90;;;;;;5032399;28;20744;-83
2022/03/30 04:33:22;;;;;;;13.87;6.23;;;1.30;99.90;;;;;;5032666;28;20472;-83
2022/03/30 04:35:48;;;;;;;12.50;6.17;;;1.30;99.90;;;;;;5033238;28;20424;-83
2022/03/30 04:38:14;;;;;;;10.67;6.50;;;1.30;99.90;;;;;;5033040;28;20416;-83
2022/03/30 04:40:40;;;;;;;10.85;6.80;;;1.30;99.90;;;;;;5043210;28;20462;-83
2022/03/30 04:43:06;;;;;;;16.97;7.23;;;1.40;99.90;;;;;;5036806;28;20428;-82
2022/03/30 04:45:32;;;;;;;15.07;7.03;;;1.50;99.90;;;;;;5037374;28;20400;-83
2022/03/30 04:47:57;;;;;;;10.97;6.00;;;1.50;99.90;;;;;;5035139;28;20472;-83
2022/03/30 04:50:23;;;;;;;16.90;7.07;;;1.50;99.90;;;;;;5032911;28;20957;-83
2022/03/30 04:52:49;;;;;;;18.42;7.55;;;1.50;99.90;;;;;;5033900;28;20411;-82
2022/03/30 04:55:15;;;;;;;17.73;7.80;;;1.40;99.90;;;;;;5037099;28;20369;-83
2022/03/30 04:57:41;;;;;;;16.67;7.15;;;1.40;99.90;;;;;;5036221;28;20930;-83
2022/03/30 05:00:09;;;;;;;16.63;7.78;;;1.30;99.90;;;;;;5050863;28;20489;-83
2022/03/30 05:02:36;;;;;;;16.50;6.63;;;1.30;99.90;;;;;;5053989;28;20439;-83
2022/03/30 05:05:03;;;;;;;14.00;6.72;;;1.30;99.90;;;;;;5055093;28;20478;-83
2022/03/30 05:07:29;;;;;;;20.00;7.40;;;1.30;99.90;;;;;;5055767;28;20387;-83
2022/03/30 05:09:55;;;;;;;27.48;8.00;;;1.40;99.90;;;;;;5058420;28;20384;-83
2022/03/30 05:12:20;;;;;;;31.25;9.23;;;1.40;99.90;;;;;;5056825;28;20394;-84
2022/03/30 05:14:46;;;;;;;22.17;7.43;;;1.50;99.90;;;;;;5057565;28;20391;-83
2022/03/30 05:17:12;;;;;;;25.90;8.23;;;1.70;99.90;;;;;;5060290;28;20569;-83
2022/03/30 05:19:37;;;;;;;21.83;7.13;;;1.70;99.90;;;;;;5059225;28;20407;-84
2022/03/30 05:22:06;;;;;;;63.87;10.90;;;1.80;99.90;;;;;;5055608;28;20411;-83
2022/03/30 05:24:32;;;;;;;55.53;12.38;;;1.90;99.90;;;;;;5053931;28;20390;-84
2022/03/30 05:26:58;;;;;;;41.63;10.20;;;2.00;99.90;;;;;;5053978;28;20383;-83
2022/03/30 05:29:23;;;;;;;47.90;10.83;;;2.00;99.90;;;;;;5055129;28;20384;-83
2022/03/30 05:31:50;;;;;;;34.43;8.63;;;2.10;99.90;;;;;;5054579;28;20384;-83
2022/03/30 05:34:16;;;;;;;29.48;8.55;;;2.10;99.90;;;;;;5052060;28;20380;-83
2022/03/30 05:36:41;;;;;;;34.03;8.55;;;2.20;99.90;;;;;;5053258;28;20407;-83
2022/03/30 05:39:07;;;;;;;25.37;8.20;;;2.30;99.90;;;;;;5051602;28;20535;-83
2022/03/30 05:41:33;;;;;;;27.73;7.93;;;2.30;99.90;;;;;;5051193;28;20964;-83
2022/03/30 05:43:59;;;;;;;41.40;9.40;;;2.50;99.90;;;;;;5053299;28;20893;-83
2022/03/30 05:46:25;;;;;;;55.97;11.25;;;2.50;99.90;;;;;;5053303;28;20367;-84
2022/03/30 05:48:51;;;;;;;46.20;10.32;;;2.60;99.90;;;;;;5051744;28;20420;-83
2022/03/30 05:51:16;;;;;;;27.57;8.53;;;2.80;99.90;;;;;;5052839;28;20403;-83
2022/03/30 05:53:42;;;;;;;26.47;8.40;;;2.90;99.90;;;;;;5054155;28;20376;-83
2022/03/30 05:56:08;;;;;;;18.70;7.83;;;3.00;99.90;;;;;;5054273;28;20372;-83
2022/03/30 05:58:33;;;;;;;18.02;8.18;;;3.10;99.90;;;;;;5054803;28;20399;-83
2022/03/30 06:00:59;;;;;;;40.78;9.70;;;3.30;99.90;;;;;;5051994;28;20379;-83
2022/03/30 06:03:26;;;;;;;37.65;9.70;;;;;;;;;;5053234;28;20469;-83
2022/03/30 06:05:51;;;;;;;21.63;7.88;;;3.80;99.90;;;;;;5050304;28;20457;-83
2022/03/30 06:08:17;;;;;;;48.23;10.73;;;3.70;99.90;;;;;;5052740;28;20371;-83
2022/03/30 06:10:44;;;;;;;16.77;7.13;;;3.90;99.90;;;;;;5052616;28;20380;-83
2022/03/30 06:13:09;;;;;;;31.65;9.93;;;4.00;99.90;;;;;;5052255;28;20963;-84
2022/03/30 06:15:38;;;;;;;30.43;8.60;;;4.70;99.90;;;;;;5051762;28;20382;-82
2022/03/30 06:18:10;;;;;;;37.65;9.30;;;4.30;99.90;;;;;;5051054;28;20407;-82
2022/03/30 06:20:38;;;;;;;27.33;8.32;;;4.50;99.90;;;;;;5051330;28;20479;-83
2022/03/30 06:23:04;;;;;;;23.30;8.80;;;4.50;99.90;;;;;;5050503;28;20387;-83
2022/03/30 06:25:30;;;;;;;26.00;8.60;;;4.50;99.90;;;;;;5050689;28;20379;-82
2022/03/30 06:27:57;;;;;;;27.92;9.48;;;4.70;99.90;;;;;;5040057;28;20428;-83
2022/03/30 06:30:24;;;;;;;14.48;7.60;;;5.00;99.90;;;;;;5043931;28;20383;-82
2022/03/30 06:32:51;;;;;;;24.08;8.70;;;5.00;99.90;;;;;;5045395;28;20732;-83
2022/03/30 06:35:20;;;;;;;24.70;8.77;;;5.20;99.90;;;;;;5041444;28;20952;-85
2022/03/30 06:37:47;;;;;;;24.02;8.23;;;5.50;99.90;;;;;;5045227;28;20417;-84
2022/03/30 06:40:17;;;;;;;21.77;8.52;;;5.60;99.90;;;;;;5052427;28;20386;-83
2022/03/30 06:42:44;;;;;;;22.30;7.97;;;5.50;99.90;;;;;;5045193;28;20885;-84
2022/03/30 06:45:11;;;;;;;19.20;7.55;;;5.60;99.90;;;;;;5051578;28;20873;-83
2022/03/30 06:47:37;;;;;;;25.73;7.90;;;5.70;99.90;;;;;;5047614;28;20408;-83
2022/03/30 06:50:05;;;;;;;19.80;8.18;;;5.80;99.90;;;;;;5043876;28;20384;-84
2022/03/30 06:52:32;;;;;;;20.88;7.40;;;5.70;99.90;;;;;;5042475;28;20418;-82
2022/03/30 06:54:59;;;;;;;18.63;7.35;;;5.60;99.90;;;;;;5044877;28;20376;-82
2022/03/30 06:57:27;;;;;;;19.40;6.83;;;5.70;99.90;;;;;;5049769;28;20400;-83
2022/03/30 06:59:53;;;;;;;19.63;6.63;;;5.70;99.90;;;;;;5046617;28;20898;-83
2022/03/30 07:02:19;;;;;;;16.63;5.93;;;6.00;99.90;;;;;;5047097;28;20898;-83
2022/03/30 07:04:47;;;;;;;25.20;6.20;;;6.10;99.90;;;;;;5044405;28;20466;-84
2022/03/30 07:10:15;;;;;;;21.05;6.18;;;6.60;99.90;;;;;;5044108;28;20455;-84
2022/03/30 07:12:45;;;;;;;20.88;7.30;;;6.70;99.90;;;;;;5039615;28;20396;-83
2022/03/30 07:15:11;;;;;;;27.25;6.50;;;7.20;99.90;;;;;;5042620;28;20435;-85
2022/03/30 07:17:44;;;;;;;25.67;6.88;;;7.40;99.90;;;;;;5039920;28;20881;-81
2022/03/30 07:20:12;;;;;;;21.48;5.80;;;7.70;99.90;;;;;;5042164;28;20396;-82
2022/03/30 07:22:38;;;;;;;22.17;5.80;;;7.80;99.90;;;;;;5043276;28;20396;-81
2022/03/30 07:25:04;;;;;;;15.77;4.90;;;8.00;99.90;;;;;;5040459;28;20743;-81
2022/03/30 07:27:31;;;;;;;18.27;4.63;;;8.30;99.90;;;;;;5045753;28;20387;-80
2022/03/30 07:29:57;;;;;;;22.67;5.80;;;8.70;99.90;;;;;;5042224;28;20403;-81
2022/03/30 07:32:24;;;;;;;20.52;4.75;;;8.80;99.90;;;;;;5043904;28;20467;-81
2022/03/30 07:34:53;;;;;;;30.83;6.40;;;8.80;99.90;;;;;;5041567;28;20893;-81
2022/03/30 07:37:19;;;;;;;12.40;3.90;;;8.90;99.90;;;;;;5041661;28;20419;-82
2022/03/30 07:39:44;;;;;;;10.25;3.85;;;9.00;99.90;;;;;;5039234;28;20389;-81
2022/03/30 07:42:12;;;;;;;12.32;3.95;;;8.90;99.90;;;;;;5037806;28;20421;-80
2022/03/30 07:44:40;;;;;;;10.77;4.18;;;9.10;99.90;;;;;;5038130;28;20396;-81
2022/03/30 07:47:07;;;;;;;12.15;3.67;;;9.00;99.90;;;;;;5040751;28;20400;-81
2022/03/30 07:49:33;;;;;;;23.10;5.32;;;9.10;99.90;;;;;;5040743;28;20385;-82
2022/03/30 07:52:03;;;;;;;12.57;3.95;;;9.00;99.90;;;;;;5039251;28;20832;-82
2022/03/30 07:54:29;;;;;;;11.02;3.70;;;8.90;99.90;;;;;;5039575;28;20398;-82
2022/03/30 07:56:54;;;;;;;8.95;3.63;;;8.90;99.90;;;;;;5039559;28;20814;-82
2022/03/30 07:59:20;;;;;;;14.18;4.20;;;8.80;99.90;;;;;;5040164;28;20422;-83
2022/03/30 08:01:46;;;;;;;8.02;3.72;;;9.00;99.90;;;;;;5040813;28;20429;-82
2022/03/30 08:04:14;;;;;;;31.50;5.93;;;9.20;99.90;;;;;;5040195;28;20427;-82
2022/03/30 08:06:40;;;;;;;66.40;8.32;;;9.20;99.90;;;;;;5036447;28;20400;-83
2022/03/30 08:09:06;;;;;;;16.67;4.30;;;9.20;99.90;;;;;;5039143;28;20387;-83
2022/03/30 08:11:32;;;;;;;10.05;3.45;;;9.30;99.90;;;;;;5040835;28;20780;-84
2022/03/30 08:13:58;;;;;;;8.48;3.20;;;9.20;99.90;;;;;;5039407;28;20953;-83
2022/03/30 08:16:24;;;;;;;11.98;3.55;;;9.10;99.90;;;;;;5040259;28;20390;-83
2022/03/30 08:18:49;;;;;;;14.20;4.00;;;9.30;99.90;;;;;;5054241;28;20397;-83
2022/03/30 08:24:02;;;;;;;7.95;2.95;;;;;;;;;;5044189;28;20973;-83
2022/03/30 08:26:28;;;;;;;8.45;2.92;;;10.00;99.90;;;;;;5040690;28;20368;-82
2022/03/30 08:28:54;;;;;;;12.07;3.42;;;10.20;99.90;;;;;;5037810;28;20802;-83
2022/03/30 08:31:20;;;;;;;11.98;3.45;;;10.30;99.90;;;;;;5040533;28;20385;-83
2022/03/30 08:33:46;;;;;;;15.63;3.83;;;10.40;99.90;;;;;;5039288;28;20457;-83
2022/03/30 08:36:11;;;;;;;52.10;7.07;;;10.60;99.90;;;;;;5039761;28;20990;-83
2022/03/30 08:38:37;;;;;;;17.50;4.20;;;10.80;99.90;;;;;;5035696;28;20443;-83
2022/03/30 08:41:03;;;;;;;12.23;3.33;;;11.00;99.90;;;;;;5037437;28;20490;-83
2022/03/30 08:43:30;;;;;;;8.65;3.40;;;11.00;99.50;;;;;;5040031;28;20869;-83
2022/03/30 08:45:59;;;;;;;16.50;4.00;;;11.00;99.80;;;;;;5041925;28;20728;-82
2022/03/30 08:48:25;;;;;;;12.75;3.22;;;10.90;98.90;;;;;;5042803;28;20394;-83
2022/03/30 08:50:52;;;;;;;10.40;3.20;;;10.90;99.00;;;;;;5042133;28;20385;-82
2022/03/30 08:53:19;;;;;;;10.18;3.42;;;11.10;99.90;;;;;;5041914;28;20407;-83
2022/03/30 08:55:45;;;;;;;10.05;3.33;;;11.30;99.80;;;;;;5042505;28;20385;-84
2022/03/30 08:58:12;;;;;;;9.48;3.10;;;11.30;96.90;;;;;;5038494;28;20406;-83
2022/03/30 09:00:38;;;;;;;7.85;3.15;;;11.20;98.10;;;;;;5040979;28;20829;-82
2022/03/30 09:03:07;;;;;;;90.25;11.38;;;;;;;;;;5042759;28;20379;-83
2022/03/30 09:05:37;;;;;;;7.32;3.25;;;11.60;97.80;;;;;;5050738;28;20470;-81
2022/03/30 09:08:25;;;;;;;9.23;3.05;;;11.70;97.10;;;;;;5048356;28;20457;-83
2022/03/30 09:10:54;;;;;;;10.83;3.10;;;11.60;96.40;;;;;;5047280;28;20399;-83
2022/03/30 09:13:21;;;;;;;8.70;3.22;;;11.40;96.50;;;;;;5048199;28;20378;-84
2022/03/30 09:15:48;;;;;;;8.55;3.33;;;11.30;96.10;;;;;;5049049;28;20908;-83
2022/03/30 09:18:15;;;;;;;13.23;3.35;;;11.30;96.30;;;;;;5050792;28;20579;-83
2022/03/30 09:20:44;;;;;;;9.68;2.90;;;11.30;96.50;;;;;;5049329;28;20387;-83
2022/03/30 09:23:12;;;;;;;10.05;3.17;;;11.60;96.10;;;;;;5047675;28;20397;-83
2022/03/30 09:25:42;;;;;;;6.68;3.05;;;11.50;96.00;;;;;;5045297;28;20475;-84
2022/03/30 09:28:09;;;;;;;11.95;3.33;;;11.70;95.90;;;;;;5043666;28;20384;-84
2022/03/30 09:30:35;;;;;;;12.07;3.70;;;11.30;95.50;;;;;;5037479;28;20453;-83
2022/03/30 09:33:01;;;;;;;13.40;4.07;;;11.30;95.50;;;;;;5038825;28;20445;-83
2022/03/30 09:35:33;;;;;;;11.45;3.53;;;11.20;96.20;;;;;;5039364;28;20376;-83
2022/03/30 09:38:18;;;;;;;8.95;3.72;;;10.90;95.80;;;;;;5039642;28;20420;-83
2022/03/30 09:40:56;;;;;;;15.50;4.20;;;10.80;96.60;;;;;;5040551;28;20418;-83
2022/03/30 09:43:27;;;;;;;13.38;3.78;;;10.80;96.60;;;;;;5043009;28;20448;-84
2022/03/30 09:46:02;;;;;;;10.40;4.28;;;10.80;97.00;;;;;;5045161;28;20731;-84
2022/03/30 09:48:29;;;;;;;13.15;4.30;;;10.80;97.10;;;;;;5043993;28;20388;-84
2022/03/30 09:50:57;;;;;;;11.07;3.90;;;10.90;97.30;;;;;;5042370;28;20378;-87
2022/03/30 09:53:25;;;;;;;9.25;3.80;;;10.90;97.10;;;;;;5042309;28;20380;-85
2022/03/30 09:55:56;;;;;;;12.77;3.80;;;10.90;96.40;;;;;;5041031;28;20426;-86
2022/03/30 09:58:23;;;;;;;9.85;3.55;;;;;;;;;;5042802;28;20408;-85
2022/03/30 10:01:10;;;;;;;10.55;4.00;;;;;;;;;;5042841;28;20418;-84
2022/03/30 10:03:41;;;;;;;9.63;4.30;;;;;;;;;;5044645;28;20401;-85
2022/03/30 10:06:09;;;;;;;11.10;3.60;;;;;;;;;;5045373;28;20806;-87
2022/03/30 10:08:35;;;;;;;9.02;3.83;;;;;;;;;;5045536;28;20397;-85
2022/03/30 10:11:01;;;;;;;10.82;3.80;;;;;;;;;;5042960;28;20484;-85
2022/03/30 10:13:28;;;;;;;11.77;3.53;;;11.90;93.90;;;;;;5044834;28;20386;-86
2022/03/30 10:15:54;;;;;;;15.88;4.15;;;12.00;93.80;;;;;;5039951;28;20390;-88
2022/03/30 10:18:19;;;;;;;10.18;3.35;;;12.20;95.30;;;;;;5038612;28;20501;-86
2022/03/30 10:21:01;;;;;;;9.23;3.80;;;12.20;92.70;;;;;;5039325;28;20894;-85
2022/03/30 10:23:31;;;;;;;9.18;3.22;;;12.10;92.70;;;;;;5040809;28;20446;-86
2022/03/30 10:26:14;;;;;;;6.38;2.67;;;12.20;92.00;;;;;;5040266;28;20725;-85
2022/03/30 10:28:40;;;;;;;9.18;3.13;;;12.30;91.10;;;;;;5039916;28;20437;-85
2022/03/30 10:31:06;;;;;;;5.97;2.73;;;12.50;92.00;;;;;;5040549;28;20381;-86
2022/03/30 10:33:37;;;;;;;7.10;2.60;;;12.40;89.90;;;;;;5041070;28;20393;-86
2022/03/30 10:36:38;;;;;;;7.88;3.03;;;12.50;89.20;;;;;;5038758;28;20392;-88
2022/03/30 10:39:16;;;;;;;8.65;2.80;;;12.20;89.60;;;;;;5004616;28;20552;-86
2022/03/30 10:42:06;;;;;;;9.43;3.08;;;12.10;86.90;;;;;;5035920;28;20395;-88
2022/03/30 10:44:36;;;;;;;14.60;3.85;;;11.80;90.50;;;;;;5040448;28;21283;-86
2022/03/30 10:47:16;;;;;;;10.02;2.88;;;11.90;90.50;;;;;;5039485;28;20419;-85
2022/03/30 10:50:07;;;;;;;8.75;3.10;;;12.40;89.30;;;;;;5052642;28;20398;-86
2022/03/30 10:52:41;;;;;;;29.15;5.07;;;12.70;90.40;;;;;;5038836;28;20397;-86
2022/03/30 10:55:12;;;;;;;14.10;3.80;;;13.10;87.80;;;;;;5037804;28;20429;-86
2022/03/30 10:57:58;;;;;;;10.10;3.45;;;13.40;87.00;;;;;;5045325;28;20412;-85
2022/03/30 11:00:38;;;;;;;9.18;3.42;;;12.70;87.90;;;;;;5044608;28;20368;-84
2022/03/30 11:03:13;;;;;;;10.30;3.28;;;;;;;;;;5043276;28;20921;-85
2022/03/30 11:05:39;;;;;;;11.43;3.03;;;;;;;;;;5038504;28;20396;-84
2022/03/30 11:08:26;;;;;;;11.57;3.50;;;;;;;;;;5042699;28;20480;-85
2022/03/30 11:10:52;;;;;;;8.13;3.20;;;;;;;;;;5041696;28;20412;-86
2022/03/30 11:13:25;;;;;;;13.40;3.80;;;;;;;;;;5043211;28;20858;-85
2022/03/30 11:16:00;;;;;;;9.35;3.20;;;;;;;;;;5041153;28;20361;-86
2022/03/30 11:18:30;;;;;;;11.15;4.07;;;;;;;;;;5037788;28;20771;-85
2022/03/30 11:21:11;;;;;;;18.20;4.38;;;;;;;;;;5042546;28;20981;-85
2022/03/30 11:23:38;;;;;;;14.43;3.30;;;;;;;;;;5042772;28;20392;-85
2022/03/30 11:26:05;;;;;;;14.53;3.87;;;;;;;;;;5043509;28;20531;-85
2022/03/30 11:28:38;;;;;;;11.30;4.03;;;;;;;;;;5044516;28;20411;-85
2022/03/30 11:31:05;;;;;;;11.03;3.40;;;;;;;;;;5042913;28;20372;-85
2022/03/30 11:33:35;;;;;;;10.15;3.58;;;;;;;;;;5039566;28;20919;-85
2022/03/30 11:36:03;;;;;;;9.20;3.10;;;;;;;;;;5041872;28;20380;-85
2022/03/30 11:38:40;;;;;;;11.93;3.83;;;;;;;;;;5038662;28;20405;-85
2022/03/30 11:41:08;;;;;;;10.87;3.80;;;;;;;;;;5026148;28;20473;-86
2022/03/30 11:46:27;;;;;;;7.22;3.08;;;;;;;;;;5039662;28;20644;-86
2022/03/30 11:48:54;;;;;;;57.20;7.67;;;;;;;;;;5038792;28;20389;-85
2022/03/30 11:51:26;;;;;;;7.93;3.00;;;;;;;;;;5039133;28;20409;-85
2022/03/30 11:54:09;;;;;;;96.10;10.52;;;;;;;;;;5035611;28;20361;-85
2022/03/30 11:56:35;;;;;;;32.50;5.78;;;;;;;;;;5038276;28;20469;-85
2022/03/30 11:59:02;;;;;;;9.95;3.88;;;;;;;;;;5034775;28;20414;-85
2022/03/30 12:01:28;;;;;;;9.48;3.00;;;11.70;99.90;;;;;;5040934;28;20385;-86
2022/03/30 12:03:55;;;;;;;9.48;3.38;;;11.50;88.00;;;;;;5037717;28;20378;-86
2022/03/30 12:06:21;;;;;;;7.38;3.25;;;11.40;90.00;;;;;;5034092;28;20400;-83
2022/03/30 12:08:48;;;;;;;7.45;2.85;;;11.20;90.10;;;;;;5035093;28;21130;-84
2022/03/30 12:11:19;;;;;;;13.95;3.33;;;11.40;90.60;;;;;;5033178;28;21096;-86
2022/03/30 12:13:50;;;;;;;12.10;3.53;;;11.30;90.40;;;;;;5032755;28;20390;-86
2022/03/30 12:16:16;;;;;;;8.40;3.35;;;11.40;90.40;;;;;;5036223;28;20858;-85
2022/03/30 12:18:53;;;;;;;8.80;3.55;;;11.60;90.20;;;;;;5037552;28;20405;-85
2022/03/30 12:21:20;;;;;;;8.05;3.50;;;11.10;90.20;;;;;;5036170;28;20435;-84
2022/03/30 12:23:54;;;;;;;9.95;3.35;;;10.70;90.70;;;;;;5035143;28;20386;-85
2022/03/30 12:26:20;;;;;;;7.45;3.40;;;10.60;91.50;;;;;;5036601;28;20499;-84
2022/03/30 12:28:45;;;;;;;9.05;3.50;;;10.60;91.60;;;;;;5035713;28;20445;-85
2022/03/30 12:31:14;;;;;;;9.85;3.15;;;10.60;91.60;;;;;;5038584;28;20911;-86
2022/03/30 12:33:53;;;;;;;7.88;3.13;;;10.50;91.10;;;;;;5038663;28;20384;-84
2022/03/30 12:36:20;;;;;;;13.45;3.47;;;10.50;91.60;;;;;;5039335;28;20396;-85
2022/03/30 12:38:51;;;;;;;13.25;3.55;;;10.40;91.70;;;;;;5037490;28;20813;-85
2022/03/30 12:41:27;;;;;;;7.75;3.47;;;10.30;92.10;;;;;;5036913;28;20413;-86
2022/03/30 12:43:58;;;;;;;9.48;3.25;;;10.50;92.00;;;;;;5038215;28;20374;-85
2022/03/30 12:46:23;;;;;;;7.35;3.38;;;10.90;91.70;;;;;;5037361;28;20399;-86
2022/03/30 12:48:49;;;;;;;19.50;4.60;;;11.20;90.90;;;;;;5039364;28;20481;-85
2022/03/30 12:51:19;;;;;;;14.45;3.85;;;11.10;90.60;;;;;;5037416;28;20400;-86
2022/03/30 12:53:47;;;;;;;11.05;4.05;;;11.20;90.50;;;;;;5037881;28;20473;-85
2022/03/30 12:56:19;;;;;;;7.15;3.35;;;11.20;90.70;;;;;;5042068;28;20404;-87
2022/03/30 12:58:56;;;;;;;9.75;3.38;;;11.00;91.30;;;;;;5041702;28;20404;-84
2022/03/30 13:01:39;;;;;;;11.57;3.47;;;10.90;90.80;;;;;;5039711;28;20391;-86
2022/03/30 13:04:20;;;;;;;147.02;17.38;;;10.80;90.80;;;;;;5041959;28;20389;-87
2022/03/30 13:07:07;;;;;;;10.45;3.63;;;10.70;90.60;;;;;;5041204;28;20476;-85
2022/03/30 13:09:33;;;;;;;10.85;3.50;;;10.60;90.80;;;;;;5037059;28;20703;-84
2022/03/30 13:11:59;;;;;;;7.78;3.30;;;10.60;91.00;;;;;;5037645;28;20429;-85
2022/03/30 13:14:26;;;;;;;9.25;3.55;;;10.40;91.50;;;;;;5040422;28;20380;-86